地図

経路データ

SID SEASON NUMBER BASIN SUBBASIN NAME ISO_TIME NATURE LAT LON WMO_WIND WMO_PRES WMO_AGENCY TRACK_TYPE DIST2LAND LANDFALL IFLAG USA_AGENCY USA_ATCF_ID USA_LAT USA_LON USA_RECORD USA_STATUS USA_WIND USA_PRES USA_SSHS USA_R34_NE USA_R34_SE USA_R34_SW USA_R34_NW USA_R50_NE USA_R50_SE USA_R50_SW USA_R50_NW USA_R64_NE USA_R64_SE USA_R64_SW USA_R64_NW USA_POCI USA_ROCI USA_RMW USA_EYE TOKYO_LAT TOKYO_LON TOKYO_GRADE TOKYO_WIND TOKYO_PRES TOKYO_R50_DIR TOKYO_R50_LONG TOKYO_R50_SHORT TOKYO_R30_DIR TOKYO_R30_LONG TOKYO_R30_SHORT TOKYO_LAND CMA_LAT CMA_LON CMA_CAT CMA_WIND CMA_PRES HKO_LAT HKO_LON HKO_CAT HKO_WIND HKO_PRES NEWDELHI_LAT NEWDELHI_LON NEWDELHI_GRADE NEWDELHI_WIND NEWDELHI_PRES NEWDELHI_CI NEWDELHI_DP NEWDELHI_POCI REUNION_LAT REUNION_LON REUNION_TYPE REUNION_WIND REUNION_PRES REUNION_TNUM REUNION_CI REUNION_RMW REUNION_R34_NE REUNION_R34_SE REUNION_R34_SW REUNION_R34_NW REUNION_R50_NE REUNION_R50_SE REUNION_R50_SW REUNION_R50_NW REUNION_R64_NE REUNION_R64_SE REUNION_R64_SW REUNION_R64_NW BOM_LAT BOM_LON BOM_TYPE BOM_WIND BOM_PRES BOM_TNUM BOM_CI BOM_RMW BOM_R34_NE BOM_R34_SE BOM_R34_SW BOM_R34_NW BOM_R50_NE BOM_R50_SE BOM_R50_SW BOM_R50_NW BOM_R64_NE BOM_R64_SE BOM_R64_SW BOM_R64_NW BOM_ROCI BOM_POCI BOM_EYE BOM_POS_METHOD BOM_PRES_METHOD NADI_LAT NADI_LON NADI_CAT NADI_WIND NADI_PRES WELLINGTON_LAT WELLINGTON_LON WELLINGTON_WIND WELLINGTON_PRES DS824_LAT DS824_LON DS824_STAGE DS824_WIND DS824_PRES TD9636_LAT TD9636_LON TD9636_STAGE TD9636_WIND TD9636_PRES TD9635_LAT TD9635_LON TD9635_WIND TD9635_PRES TD9635_ROCI NEUMANN_LAT NEUMANN_LON NEUMANN_CLASS NEUMANN_WIND NEUMANN_PRES MLC_LAT MLC_LON MLC_CLASS MLC_WIND MLC_PRES USA_GUST BOM_GUST BOM_GUST_PER REUNION_GUST REUNION_GUST_PER USA_SEAHGT USA_SEARAD_NE USA_SEARAD_SE USA_SEARAD_SW USA_SEARAD_NW STORM_SPEED STORM_DIR
1988055S10180 1988 13 SP MM BOLA 1988-02-23 18:00:00 TS -10.4000 179.500 main 650 587 O_________O_O_ jtwc_sh SH131988 -10.4000 179.500 25 -1 -10.4000 179.500 1 25 -10.4000 179.500 TC 25 15 217
1988055S10180 1988 13 SP MM BOLA 1988-02-23 21:00:00 TS -10.9968 179.046 main 588 526 P_________P_P_ SH131988 -10.9976 179.045 27 -1 -10.9950 179.047 1 27 -10.9976 179.045 TC 27 15 211
1988055S10180 1988 13 SP MM BOLA 1988-02-24 00:00:00 TS -11.6400 178.740 30 997 wellington main 528 472 O_______O_O_O_ jtwc_sh SH131988 -11.6000 178.600 30 -1 -12.0000 180.000 30 997 -11.6000 178.600 1 30 -11.6000 178.600 TC 30 14 208
1988055S10180 1988 13 SP MM BOLA 1988-02-24 03:00:00 TS -12.2507 178.378 main 461 419 P_______P_P_P_ SH131988 -12.2075 178.177 32 -1 -12.4876 179.595 30 997 -12.2188 178.170 1 31 -12.2075 178.177 TC 32 14 208
1988055S10180 1988 13 SP MM BOLA 1988-02-24 06:00:00 TS -12.8476 178.074 30 997 wellington main 419 370 O_______O_P_O_ jtwc_sh SH131988 -12.8000 177.800 35 0 -13.0000 179.200 30 997 -12.8284 177.778 1 32 -12.8000 177.800 TC 35 13 206
1988055S10180 1988 13 SP MM BOLA 1988-02-24 09:00:00 TS -13.4315 177.792 main 370 327 P_______P_P_P_ SH131988 -13.3950 177.448 35 0 -13.5375 178.828 30 997 -13.3988 177.447 1 33 -13.3950 177.448 TC 35 12 206
1988055S10180 1988 13 SP MM BOLA 1988-02-24 12:00:00 TS -13.9250 177.525 30 997 wellington main 331 293 O_______O_O_O_ jtwc_sh SH131988 -13.9000 177.200 35 0 -14.0000 178.500 30 997 -13.9000 177.200 2 35 -13.9000 177.200 TC 35 9 205
1988055S10180 1988 13 SP MM BOLA 1988-02-24 15:00:00 TS -14.2682 177.389 main 293 277 P_______P_P_P_ SH131988 -14.2299 177.112 35 0 -14.2799 178.235 30 997 -14.3329 177.095 2 35 -14.2299 177.112 TC 35 7 198
1988055S10180 1988 13 SP MM BOLA 1988-02-24 18:00:00 TS -14.5480 177.317 30 997 wellington main 277 244 O_______O_P_O_ jtwc_sh SH131988 -14.5000 177.100 35 0 -14.5000 178.000 30 997 -14.6919 177.069 2 35 -14.5000 177.100 TC 35 6 194
1988055S10180 1988 13 SP MM BOLA 1988-02-24 21:00:00 TS -14.8775 177.233 main 244 224 P_______P_P_P_ SH131988 -14.8650 177.057 35 0 -14.7999 177.757 32 996 -14.9799 177.058 2 35 -14.8650 177.057 TC 35 7 196
1988055S10180 1988 13 SP MM BOLA 1988-02-25 00:00:00 TS -15.1750 177.125 35 995 wellington main 224 216 O_______O_O_O_ jtwc_sh SH131988 -15.2000 177.000 35 0 -15.1000 177.500 35 995 -15.2000 177.000 2 35 -15.2000 177.000 TC 35 6 203
1988055S10180 1988 13 SP MM BOLA 1988-02-25 03:00:00 TS -15.4195 176.994 main 216 209 P_______P_P_P_ SH131988 -15.4524 176.952 37 0 -15.3725 177.215 35 995 -15.4008 176.857 2 37 -15.4524 176.952 TC 37 5 219
1988055S10180 1988 13 SP MM BOLA 1988-02-25 06:00:00 TS -15.5836 176.788 35 995 wellington main 219 219 O_______O_P_O_ jtwc_sh SH131988 -15.6000 176.800 40 0 -15.6000 176.900 35 995 -15.5343 176.650 2 40 -15.6000 176.800 TC 40 6 244
1988055S10180 1988 13 SP MM BOLA 1988-02-25 09:00:00 TS -15.6657 176.467 main 227 227 P_______P_P_P_ SH131988 -15.6375 176.460 42 0 -15.7874 176.580 37 992 -15.6006 176.369 2 42 -15.6375 176.460 TC 42 7 263
1988055S10180 1988 13 SP MM BOLA 1988-02-25 12:00:00 TS -15.6750 176.050 40 990 wellington main 250 250 O_______O_O_O_ jtwc_sh SH131988 -15.6000 176.000 45 0 -15.9000 176.200 40 990 -15.6000 176.000 2 45 -15.6000 176.000 TC 45 9 270
1988055S10180 1988 13 SP MM BOLA 1988-02-25 15:00:00 TS -15.6659 175.584 main 285 285 P_______P_P_P_ SH131988 -15.5799 175.530 47 0 -15.9600 175.730 40 990 -15.5440 175.544 2 46 -15.5799 175.530 TC 47 10 276
1988055S10180 1988 13 SP MM BOLA 1988-02-25 18:00:00 TS -15.5813 175.051 40 990 wellington main 331 331 O_______O_P_O_ jtwc_sh SH131988 -15.5000 175.000 50 0 -15.9000 175.200 40 990 -15.4253 175.004 2 47 -15.5000 175.000 TC 50 11 284
1988055S10180 1988 13 SP MM BOLA 1988-02-25 21:00:00 TS -15.4003 174.479 main 395 395 P_______P_P_P_ SH131988 -15.3150 174.415 50 0 -15.7023 174.673 42 988 -15.2689 174.413 2 48 -15.3150 174.415 TC 50 12 290
1988055S10180 1988 13 SP MM BOLA 1988-02-26 00:00:00 TS -15.1750 173.875 45 987 wellington main 459 459 O_______O_O_O_ jtwc_sh SH131988 -15.1000 173.800 50 0 -15.4000 174.100 45 987 -15.1000 173.800 2 50 -15.1000 173.800 TC 50 13 291
1988055S10180 1988 13 SP MM BOLA 1988-02-26 03:00:00 TS -14.9533 173.247 main 534 534 P_______P_P_P_ SH131988 -14.9423 173.200 52 0 -15.0276 173.442 45 987 -14.9010 173.145 2 51 -14.9423 173.200 TC 52 13 289
1988055S10180 1988 13 SP MM BOLA 1988-02-26 06:00:00 TS -14.7509 172.622 45 987 wellington main 541 488 O_______O_P_O_ jtwc_sh SH131988 -14.8000 172.600 55 0 -14.7000 172.800 45 987 -14.7036 172.486 2 52 -14.8000 172.600 TC 55 13 288
1988055S10180 1988 13 SP MM BOLA 1988-02-26 09:00:00 TS -14.5723 172.014 main 488 445 P_______P_P_P_ SH131988 -14.6052 171.947 55 0 -14.5247 172.278 45 987 -14.5542 171.885 2 53 -14.6052 171.947 TC 55 11 283
1988055S10180 1988 13 SP MM BOLA 1988-02-26 12:00:00 TS -14.5000 171.500 45 987 wellington main 445 411 O_______O_O_O_ jtwc_sh SH131988 -14.5000 171.400 55 0 -14.5000 171.800 45 987 -14.5000 171.400 2 55 -14.5000 171.400 TC 55 9 268
1988055S10180 1988 13 SP MM BOLA 1988-02-26 15:00:00 TS -14.5985 171.134 main 401 372 P_______P_P_P_ SH131988 -14.5898 171.075 55 0 -14.6200 171.285 47 986 -14.5944 171.099 2 55 -14.5898 171.075 TC 55 7 244
1988055S10180 1988 13 SP MM BOLA 1988-02-26 18:00:00 TS -14.7966 170.879 50 985 wellington main 372 343 O_______O_P_O_ jtwc_sh SH131988 -14.8000 170.900 55 0 -14.8000 170.800 50 985 -14.7864 170.916 2 55 -14.8000 170.900 TC 55 6 227
1988055S10180 1988 13 SP MM BOLA 1988-02-26 21:00:00 TS -15.0013 170.681 main 343 314 P_______P_P_P_ SH131988 -15.0349 170.792 55 0 -14.9000 170.340 50 985 -15.0353 170.799 2 55 -15.0349 170.792 TC 55 6 219
1988055S10180 1988 13 SP MM BOLA 1988-02-27 00:00:00 TS -15.2250 170.525 50 985 wellington main 314 295 O_______O_O_O_ jtwc_sh SH131988 -15.3000 170.700 55 0 -15.0000 170.000 50 985 -15.3000 170.700 2 55 -15.3000 170.700 TC 55 5 215
1988055S10180 1988 13 SP MM BOLA 1988-02-27 03:00:00 TS -15.4490 170.356 main 295 265 P_______P_P_P_ SH131988 -15.5575 170.500 55 0 -15.1348 169.870 52 982 -15.5461 170.555 2 55 -15.5575 170.500 TC 55 5 215
1988055S10180 1988 13 SP MM BOLA 1988-02-27 06:00:00 TS -15.6737 170.204 55 980 wellington main 265 249 O_______O_P_O_ jtwc_sh SH131988 -15.8000 170.300 55 0 -15.3000 169.800 55 980 -15.7948 170.415 2 55 -15.8000 170.300 TC 55 5 212
1988055S10180 1988 13 SP MM BOLA 1988-02-27 09:00:00 TS -15.8953 170.071 main 249 225 P_______P_P_P_ SH131988 -16.0299 170.200 55 0 -15.5000 169.615 55 980 -16.0211 170.268 2 55 -16.0299 170.200 TC 55 5 214
1988055S10180 1988 13 SP MM BOLA 1988-02-27 12:00:00 TS -16.0750 169.925 55 980 wellington main 225 203 O_______O_O_O_ jtwc_sh SH131988 -16.2000 170.100 55 0 -15.7000 169.400 55 980 -16.2000 170.100 2 55 -16.2000 170.100 TC 55 4 230
1988055S10180 1988 13 SP MM BOLA 1988-02-27 15:00:00 TS -16.1723 169.732 main 203 181 P_______P_P_P_ SH131988 -16.2725 169.922 55 0 -15.8575 169.192 57 977 -16.2867 169.890 2 56 -16.2725 169.922 TC 55 4 248
1988055S10180 1988 13 SP MM BOLA 1988-02-27 18:00:00 TS -16.2318 169.515 60 975 wellington main 181 160 O_______O_P_O_ jtwc_sh SH131988 -16.3000 169.700 55 0 -16.0000 169.000 60 975 -16.3273 169.660 2 57 -16.3000 169.700 TC 55 4 253
1988055S10180 1988 13 SP MM BOLA 1988-02-27 21:00:00 TS -16.2973 169.294 main 160 138 P_______P_P_P_ SH131988 -16.3425 169.450 57 0 -16.1500 168.850 60 975 -16.3543 169.425 2 58 -16.3425 169.450 TC 57 4 251
1988055S10180 1988 13 SP MM BOLA 1988-02-28 00:00:00 TS -16.3750 169.075 60 975 wellington main 138 117 O_______O_O_O_ jtwc_sh SH131988 -16.4000 169.200 60 0 -16.3000 168.700 60 975 -16.4000 169.200 2 60 -16.4000 169.200 TC 60 4 244
1988055S10180 1988 13 SP MM BOLA 1988-02-28 03:00:00 TS -16.4959 168.876 main 117 95 P_______P_P_P_ SH131988 -16.5074 169.000 65 1 -16.4575 168.500 62 972 -16.5114 169.006 2 65 -16.5074 169.000 TC 65 4 240
1988055S10180 1988 13 SP MM BOLA 1988-02-28 06:00:00 TS -16.6000 168.675 65 970 wellington main 95 63 O_______O_O_O_ jtwc_sh SH131988 -16.6000 168.800 70 1 -16.6000 168.300 65 970 -16.6000 168.800 3 70 -16.6000 168.800 TC 70 5 252
1988055S10180 1988 13 SP MM BOLA 1988-02-28 09:00:00 TS -16.6354 168.429 main 63 42 P_______P_P_P_ SH131988 -16.6076 168.535 75 1 -16.7150 168.113 67 967 -16.6115 168.534 3 75 -16.6076 168.535 TC 75 4 263
1988055S10180 1988 13 SP MM BOLA 1988-02-28 12:00:00 TS -16.6500 168.225 70 965 wellington main 42 33 O_______O_O_O_ jtwc_sh SH131988 -16.6000 168.300 80 1 -16.8000 168.000 70 965 -16.6000 168.300 4 80 -16.6000 168.300 TC 80 3 259
1988055S10180 1988 13 SP MM BOLA 1988-02-28 15:00:00 TS -16.6924 168.119 main 33 33 P_______P_P_P_ SH131988 -16.6425 168.148 82 1 -16.8650 168.020 70 965 -16.6199 168.161 4 82 -16.6425 168.148 TC 82 1 233
1988055S10180 1988 13 SP MM BOLA 1988-02-28 18:00:00 TS -16.7397 168.104 70 965 wellington main 33 33 O_______O_P_O_ jtwc_sh SH131988 -16.7000 168.100 85 2 -16.9000 168.100 70 965 -16.6587 168.116 4 85 -16.7000 168.100 TC 85 1 170
1988055S10180 1988 13 SP MM BOLA 1988-02-28 21:00:00 TS -16.7795 168.137 main 39 39 P_______P_P_P_ SH131988 -16.7499 168.140 87 2 -16.8999 168.105 72 962 -16.7181 168.163 4 87 -16.7499 168.140 TC 87 2 117
1988055S10180 1988 13 SP MM BOLA 1988-02-29 00:00:00 TS -16.8250 168.275 75 960 wellington main 57 57 O_______O_O_O_ jtwc_sh SH131988 -16.8000 168.300 90 2 -16.9000 168.200 75 960 -16.8000 168.300 4 90 -16.8000 168.300 TC 90 4 103
1988055S10180 1988 13 SP MM BOLA 1988-02-29 03:00:00 TS -16.8705 168.552 main 91 91 P_______P_P_P_ SH131988 -16.8276 168.570 90 2 -16.9351 168.512 75 960 -16.8918 168.554 4 91 -16.8276 168.570 TC 90 6 102
1988055S10180 1988 13 SP MM BOLA 1988-02-29 06:00:00 TS -16.9515 168.896 75 960 wellington main 125 125 O_______O_P_O_ jtwc_sh SH131988 -16.9000 168.900 90 2 -17.0000 168.900 75 960 -17.0058 168.885 4 92 -16.9000 168.900 TC 90 7 108
1988055S10180 1988 13 SP MM BOLA 1988-02-29 09:00:00 TS -17.0861 169.228 main 159 159 P_______P_P_P_ SH131988 -17.0700 169.222 92 2 -17.0625 169.245 77 957 -17.1418 169.223 4 93 -17.0700 169.222 TC 92 7 119
1988055S10180 1988 13 SP MM BOLA 1988-02-29 12:00:00 TS -17.2750 169.500 80 955 wellington main 197 197 O_______O_O_O_ jtwc_sh SH131988 -17.3000 169.500 95 2 -17.2000 169.500 80 955 -17.3000 169.500 4 95 -17.3000 169.500 TC 95 6 136
1988055S10180 1988 13 SP MM BOLA 1988-02-29 15:00:00 TS -17.5268 169.667 main 225 225 P_______P_P_P_ SH131988 -17.5574 169.702 95 2 -17.4774 169.603 80 955 -17.5147 169.659 4 95 -17.5574 169.702 TC 95 6 156
1988055S10180 1988 13 SP MM BOLA 1988-02-29 18:00:00 TS -17.7861 169.736 80 955 wellington main 242 242 O_______O_P_O_ jtwc_sh SH131988 -17.8000 169.800 95 2 -17.8000 169.600 80 955 -17.7446 169.743 4 95 -17.8000 169.800 TC 95 5 172
1988055S10180 1988 13 SP MM BOLA 1988-02-29 21:00:00 TS -17.9980 169.735 main 255 255 P_______P_P_P_ SH131988 -17.9874 169.803 95 2 -18.0650 169.580 82 950 -17.9522 169.755 4 95 -17.9874 169.803 TC 95 4 193
1988055S10180 1988 13 SP MM BOLA 1988-03-01 00:00:00 TS -18.1500 169.650 85 945 wellington main 262 254 O_______O_O_O_ jtwc_sh SH131988 -18.1000 169.700 95 2 -18.3000 169.500 85 945 -18.1000 169.700 4 95 -18.1000 169.700 TC 95 3 224
1988055S10180 1988 13 SP MM BOLA 1988-03-01 03:00:00 TS -18.2458 169.485 main 254 248 P_______P_P_P_ SH131988 -18.1301 169.515 97 3 -18.5750 169.358 85 945 -18.1480 169.553 4 97 -18.1301 169.515 TC 100 4 253
1988055S10180 1988 13 SP MM BOLA 1988-03-01 06:00:00 TS -18.2582 169.287 85 945 wellington main 248 226 O_______O_P_O_ jtwc_sh SH131988 -18.1000 169.300 100 3 -18.7000 169.200 85 945 -18.1329 169.350 4 100 -18.1000 169.300 TC 105 4 281
1988055S10180 1988 13 SP MM BOLA 1988-03-01 09:00:00 TS -18.1772 169.116 main 226 210 P_______P_P_P_ SH131988 -18.0650 169.120 102 3 -18.5025 169.077 87 942 -18.0762 169.147 4 102 -18.0650 169.120 TC 105 3 307
1988055S10180 1988 13 SP MM BOLA 1988-03-01 12:00:00 TS -18.0500 169.000 90 940 wellington main 201 193 O_______O_O_O_ jtwc_sh SH131988 -18.0000 169.000 105 3 -18.2000 169.000 90 940 -18.0000 169.000 4 105 -18.0000 169.000 TC 105 3 329
1988055S10180 1988 13 SP MM BOLA 1988-03-01 15:00:00 TS -17.9367 168.966 main 193 185 P_______P_P_P_ SH131988 -17.9000 168.963 102 3 -18.0200 168.970 90 940 -17.9271 168.969 4 102 -17.9000 168.963 TC 102 2 0
1988055S10180 1988 13 SP MM BOLA 1988-03-01 18:00:00 TS -17.8356 169.001 90 940 wellington main 185 185 O_______O_P_O_ jtwc_sh SH131988 -17.8000 169.000 100 3 -17.9000 169.000 90 940 -17.8423 169.003 4 100 -17.8000 169.000 TC 100 2 32
1988055S10180 1988 13 SP MM BOLA 1988-03-01 21:00:00 TS -17.7685 169.077 main 192 185 P_______P_P_P_ SH131988 -17.7425 169.077 97 3 -17.8275 169.070 90 940 -17.7615 169.085 4 97 -17.7425 169.077 TC 97 2 60
1988055S10180 1988 13 SP MM BOLA 1988-03-02 00:00:00 TS -17.7250 169.200 90 940 wellington main 193 193 O_______O_O_O_ jtwc_sh SH131988 -17.7000 169.200 95 2 -17.8000 169.200 90 940 -17.7000 169.200 4 95 -17.7000 169.200 TC 95 3 70
1988055S10180 1988 13 SP MM BOLA 1988-03-02 03:00:00 TS -17.6782 169.338 main 201 201 P_______P_P_P_ SH131988 -17.6350 169.343 92 2 -17.7850 169.378 90 940 -17.6579 169.289 4 91 -17.6350 169.343 TC 92 3 77
1988055S10180 1988 13 SP MM BOLA 1988-03-02 06:00:00 TS -17.6599 169.503 90 940 wellington main 218 218 O_______O_P_O_ jtwc_sh SH131988 -17.6000 169.500 90 2 -17.8000 169.600 90 940 -17.6397 169.410 4 87 -17.6000 169.500 TC 90 3 92
1988055S10180 1988 13 SP MM BOLA 1988-03-02 09:00:00 TS -17.6891 169.667 main 236 236 P_______P_P_P_ SH131988 -17.6349 169.635 85 2 -17.8349 169.820 87 942 -17.6516 169.577 4 83 -17.6349 169.635 TC 85 4 104
1988055S10180 1988 13 SP MM BOLA 1988-03-02 12:00:00 TS -17.7500 169.875 85 945 wellington main 254 254 O_______O_O_O_ jtwc_sh SH131988 -17.7000 169.800 80 1 -17.9000 170.100 85 945 -17.7000 169.800 4 80 -17.7000 169.800 TC 80 5 104
1988055S10180 1988 13 SP MM BOLA 1988-03-02 15:00:00 TS -17.7970 170.126 main 278 278 P_______P_P_P_ SH131988 -17.7274 170.005 75 1 -17.9775 170.470 85 945 -17.7556 170.025 4 77 -17.7274 170.005 TC 75 6 104
1988055S10180 1988 13 SP MM BOLA 1988-03-02 18:00:00 TS -17.8877 170.454 85 945 wellington main 321 321 O_______O_P_O_ jtwc_sh SH131988 -17.8000 170.300 70 1 -18.1000 170.900 85 945 -17.8508 170.314 4 75 -17.8000 170.300 TC 70 7 111
1988055S10180 1988 13 SP MM BOLA 1988-03-02 21:00:00 TS -18.0550 170.849 main 359 359 P_______P_P_P_ SH131988 -17.9698 170.683 70 1 -18.2849 171.335 82 950 -17.9957 170.697 4 72 -17.9698 170.683 TC 70 9 114
1988055S10180 1988 13 SP MM BOLA 1988-03-03 00:00:00 TS -18.2750 171.350 80 955 wellington main 426 426 O_______O_O_O_ jtwc_sh SH131988 -18.2000 171.200 70 1 -18.5000 171.800 80 955 -18.2000 171.200 4 70 -18.2000 171.200 TC 70 11 112
1988055S10180 1988 13 SP MM BOLA 1988-03-03 03:00:00 TS -18.4734 171.951 main 493 491 P_______P_P_P_ SH131988 -18.4198 171.840 67 1 -18.6622 172.263 80 955 -18.3916 171.859 4 67 -18.4198 171.840 TC 67 13 110
1988055S10180 1988 13 SP MM BOLA 1988-03-03 06:00:00 TS -18.7373 172.658 80 955 wellington main 481 419 O_______O_P_O_ jtwc_sh SH131988 -18.7000 172.600 65 1 -18.9000 172.800 80 955 -18.6492 172.634 4 65 -18.7000 172.600 TC 65 15 114
1988055S10180 1988 13 SP MM BOLA 1988-03-03 09:00:00 TS -19.0941 173.437 main 419 357 P_______P_P_P_ SH131988 -19.0398 173.421 62 0 -19.2897 173.440 77 957 -19.0070 173.466 4 62 -19.0398 173.421 TC 62 17 119
1988055S10180 1988 13 SP MM BOLA 1988-03-03 12:00:00 TS -19.5750 174.275 75 960 wellington main 353 321 O_______O_O_O_ jtwc_sh SH131988 -19.5000 174.300 60 0 -19.8000 174.200 75 960 -19.5000 174.300 2 60 -19.5000 174.300 TC 60 20 123
1988055S10180 1988 13 SP MM BOLA 1988-03-03 15:00:00 TS -20.1627 175.171 main 322 315 P_______P_P_P_ SH131988 -20.0678 175.238 60 0 -20.3552 175.085 75 960 -20.1601 175.123 2 58 -20.0678 175.238 TC 60 21 129
1988055S10180 1988 13 SP MM BOLA 1988-03-03 18:00:00 TS -20.8879 176.033 75 960 wellington main 341 337 O_______O_P_O_ jtwc_sh SH131988 -20.8000 176.100 60 0 -21.0000 176.000 75 960 -20.9515 175.930 2 57 -20.8000 176.100 TC 60 22 136
1988055S10180 1988 13 SP MM BOLA 1988-03-03 21:00:00 TS -21.7157 176.751 main 397 397 P_______P_P_P_ SH131988 -21.6968 176.753 57 0 -21.6521 176.824 72 962 -21.8169 176.673 2 56 -21.6968 176.753 TC 57 22 145
1988055S10180 1988 13 SP MM BOLA 1988-03-04 00:00:00 TS -22.6500 177.375 70 965 wellington main 483 494 O_______O_O_O_ jtwc_sh SH131988 -22.7000 177.300 55 0 -22.5000 177.600 70 965 -22.7000 177.300 2 55 -22.7000 177.300 TC 55 23 149
1988055S10180 1988 13 SP MM BOLA 1988-03-04 03:00:00 TS -23.6921 178.051 main 603 603 P_______P_P_P_ SH131988 -23.7452 177.924 52 0 -23.7132 178.510 70 965 -23.5647 177.844 2 52 -23.7452 177.924 TC 52 23 153
1988055S10180 1988 13 SP MM BOLA 1988-03-04 06:00:00 TS -24.7075 178.539 70 965 wellington main 716 716 O_______O_P_O_ jtwc_sh SH131988 -24.7000 178.400 50 0 -25.0000 179.100 70 965 -24.4301 178.256 2 50 -24.7000 178.400 TC 50 19 163
1988055S10180 1988 13 SP MM BOLA 1988-03-04 09:00:00 TS -25.5429 178.676 main 806 806 P_______P_P_P_ SH131988 -25.4021 178.599 47 0 -26.1118 178.991 67 967 -25.2557 178.515 2 47 -25.4021 178.599 TC 47 16 178
1988055S10180 1988 13 SP MM BOLA 1988-03-04 12:00:00 TS -26.2500 178.575 65 970 wellington main 884 884 O_______O_O_O_ jtwc_sh SH131988 -26.0000 178.600 45 0 -27.0000 178.500 65 970 -26.0000 178.600 2 45 -26.0000 178.600 TC 45 14 190
1988055S10180 1988 13 SP MM BOLA 1988-03-04 15:00:00 TS -26.9040 178.423 main 961 933 P_______P_P_P_ SH131988 -26.6872 178.582 45 0 -27.5900 178.029 65 970 -26.6516 178.498 2 43 -26.6872 178.582 TC 45 13 198
1988055S10180 1988 13 SP MM BOLA 1988-03-04 18:00:00 TS -27.4538 178.132 65 970 wellington main 919 860 O_______O_P_O_ jtwc_sh SH131988 -27.3000 178.400 45 0 -28.0000 177.500 65 970 -27.2150 178.228 2 42 -27.3000 178.400 TC 45 12 213
1988055S10180 1988 13 SP MM BOLA 1988-03-04 21:00:00 TS -27.9155 177.694 main 860 802 P_______P_P_P_ SH131988 -27.7529 177.980 42 0 -28.4602 176.948 65 970 -27.6958 177.869 2 41 -27.7529 177.980 TC 42 11 224
1988055S10180 1988 13 SP MM BOLA 1988-03-05 00:00:00 TS -28.2750 177.250 65 970 wellington main 802 768 O_______O_O_O_ jtwc_sh SH131988 -28.1000 177.500 40 0 -28.8000 176.500 65 970 -28.1000 177.500 2 40 -28.1000 177.500 TC 40 9 226
1988055S10180 1988 13 SP MM BOLA 1988-03-05 03:00:00 TS -28.5563 176.946 main 754 725 P_______P_P_P_ SH131988 -28.4223 177.162 37 0 -28.9447 176.274 65 970 -28.4360 177.187 2 37 -28.4223 177.162 TC 37 7 223
1988055S10180 1988 13 SP MM BOLA 1988-03-05 06:00:00 TS -28.7969 176.691 65 970 wellington main 725 696 O_______O_P_O_ jtwc_sh SH131988 -28.7000 176.900 35 0 -29.0000 176.200 65 970 -28.7197 176.928 2 35 -28.7000 176.900 TC 35 6 222
1988055S10180 1988 13 SP MM BOLA 1988-03-05 09:00:00 TS -28.9977 176.487 main 696 667 P_______P_P_P_ SH131988 -28.9551 176.688 32 -1 -29.0550 176.177 65 970 -28.9686 176.705 2 32 -28.9551 176.688 TC 32 5 218
1988055S10180 1988 13 SP MM BOLA 1988-03-05 12:00:00 TS -29.2000 176.329 65 970 wellington main 667 623 O_______O_O_O_ jtwc_sh SH131988 -29.2000 176.500 30 -1 -29.2000 176.200 65 970 -29.2000 176.500 1 30 -29.2000 176.500 TC 30 6 203
1988055S10180 1988 13 SP MM BOLA 1988-03-05 15:00:00 NR -29.5850 176.200 main 623 584 ________P_____ SH131988 -1 -29.5850 176.200 62 972 1 TC 8 188
1988055S10180 1988 13 SP MM BOLA 1988-03-05 18:00:00 NR -30.0000 176.200 60 975 wellington main 584 565 ________O_____ -1 -30.0000 176.200 60 975 1 6 178
1988055S10180 1988 13 SP MM BOLA 1988-03-05 21:00:00 NR -30.2150 176.207 main 565 546 ________P_____ -1 -30.2150 176.207 60 975 1 4 0
1988055S10180 1988 13 SP MM BOLA 1988-03-06 00:00:00 NR -30.4000 176.200 60 975 wellington main 546 518 ________O_____ -1 -30.4000 176.200 60 975 5 185
1988055S10180 1988 13 SP MM BOLA 1988-03-06 03:00:00 NR -30.6925 176.158 main 518 485 ________P_____ -1 -30.6925 176.158 60 975 6 188
1988055S10180 1988 13 SP MM BOLA 1988-03-06 06:00:00 NR -31.0000 176.100 60 975 wellington main 485 467 ________O_____ -1 -31.0000 176.100 60 975 5 190
1988055S10180 1988 13 SP MM BOLA 1988-03-06 09:00:00 NR -31.1825 176.057 main 467 435 ________P_____ -1 -31.1825 176.057 60 975 5 190
1988055S10180 1988 13 SP MM BOLA 1988-03-06 12:00:00 NR -31.5000 176.000 60 975 wellington main 435 367 ________O_____ -1 -31.5000 176.000 60 975 11 186
1988055S10180 1988 13 SP MM BOLA 1988-03-06 15:00:00 NR -32.2575 175.915 main 358 286 ________P_____ -1 -32.2575 175.915 60 975 15 186
1988055S10180 1988 13 SP MM BOLA 1988-03-06 18:00:00 NR -33.0000 175.800 60 975 wellington main 286 254 ________O_____ -1 -33.0000 175.800 60 975 11 192
1988055S10180 1988 13 SP MM BOLA 1988-03-06 21:00:00 NR -33.3050 175.657 main 254 234 ________P_____ -1 -33.3050 175.657 60 975 5 212
1988055S10180 1988 13 SP MM BOLA 1988-03-07 00:00:00 NR -33.4000 175.500 60 975 wellington main 234 219 ________O_____ -1 -33.4000 175.500 60 975 3 236
1988055S10180 1988 13 SP MM BOLA 1988-03-07 03:00:00 NR -33.4800 175.342 main 214 209 ________P_____ -1 -33.4800 175.342 57 977 3 248
1988055S10180 1988 13 SP MM BOLA 1988-03-07 06:00:00 NR -33.5000 175.200 55 980 wellington main 209 204 ________O_____ -1 -33.5000 175.200 55 980 2 263
1988055S10180 1988 13 SP MM BOLA 1988-03-07 09:00:00 NR -33.4998 175.137 main 204 200 ________P_____ -1 -33.4998 175.137 55 980 2 270
1988055S10180 1988 13 SP MM BOLA 1988-03-07 12:00:00 NR -33.5000 175.000 55 980 wellington main 200 186 ________O_____ -1 -33.5000 175.000 55 980 4 263
1988055S10180 1988 13 SP MM BOLA 1988-03-07 15:00:00 NR -33.5502 174.645 main 172 149 ________P_____ -1 -33.5502 174.645 55 980 7 261
1988055S10180 1988 13 SP MM BOLA 1988-03-07 18:00:00 NR -33.6000 174.200 55 980 wellington main 149 124 ________O_____ -1 -33.6000 174.200 55 980 7 266
1988055S10180 1988 13 SP MM BOLA 1988-03-07 21:00:00 NR -33.6000 173.785 main 124 106 ________P_____ -1 -33.6000 173.785 55 980 7 270
1988055S10180 1988 13 SP MM BOLA 1988-03-08 00:00:00 NR -33.6000 173.400 55 980 wellington main 106 100 ________O_____ -1 -33.6000 173.400 55 980 6 266
1988055S10180 1988 13 SP MM BOLA 1988-03-08 03:00:00 NR -33.6421 173.107 main 100 89 ________P_____ -1 -33.6421 173.107 52 982 5 259
1988055S10180 1988 13 SP MM BOLA 1988-03-08 06:00:00 NR -33.7000 172.800 50 985 wellington main 89 89 ________O_____ -1 -33.7000 172.800 50 985 6 261
1988055S10180 1988 13 SP MM BOLA 1988-03-08 09:00:00 NR -33.7351 172.372 main 91 86 ________P_____ -1 -33.7351 172.372 50 985 8 262
1988055S10180 1988 13 SP MM BOLA 1988-03-08 12:00:00 NR -33.8000 171.900 50 985 wellington main 101 101 ________O_____ -1 -33.8000 171.900 50 985 8 256
1988055S10180 1988 13 SP MM BOLA 1988-03-08 15:00:00 NR -33.9277 171.413 main 128 128 ________P_____ -1 -33.9277 171.413 50 985 8 248
1988055S10180 1988 13 SP MM BOLA 1988-03-08 18:00:00 NR -34.1000 171.000 50 985 wellington main 153 153 ________O_____ -1 -34.1000 171.000 50 985 7 236
1988055S10180 1988 13 SP MM BOLA 1988-03-08 21:00:00 NR -34.2922 170.762 main 166 166 ________P_____ -1 -34.2922 170.762 50 985 5 220
1988055S10180 1988 13 SP MM BOLA 1988-03-09 00:00:00 NR -34.5000 170.600 50 985 wellington main 182 182 ________O_____ -1 -34.5000 170.600 50 985 5 221
1988055S10180 1988 13 SP MM BOLA 1988-03-09 03:00:00 NR -34.6625 170.377 main 202 202 ________P_____ -1 -34.6625 170.377 50 985 5 219
1988055S10180 1988 13 SP MM BOLA 1988-03-09 06:00:00 NR -34.9000 170.200 50 985 wellington main 223 223 ________O_____ -1 -34.9000 170.200 50 985 7 198
1988055S10180 1988 13 SP MM BOLA 1988-03-09 09:00:00 NR -35.2900 170.127 main 244 244 ________P_____ -1 -35.2900 170.127 50 985 9 185
1988055S10180 1988 13 SP MM BOLA 1988-03-09 12:00:00 NR -35.8000 170.100 50 985 wellington main 269 269 ________O_____ -1 -35.8000 170.100 50 985 11 0
1988055S10180 1988 13 SP MM BOLA 1988-03-09 15:00:00 NR -36.3922 170.116 main 304 304 ________P_____ -1 -36.3922 170.116 47 986 12 184
1988055S10180 1988 13 SP MM BOLA 1988-03-09 18:00:00 NR -37.0000 170.000 45 987 wellington main 343 343 ________O_____ -1 -37.0000 170.000 45 987 12 202
1988055S10180 1988 13 SP MM BOLA 1988-03-09 21:00:00 NR -37.5157 169.539 main 411 411 ________P_____ -1 -37.5157 169.539 42 988 13 218
1988055S10180 1988 13 SP MM BOLA 1988-03-10 00:00:00 NR -38.0000 169.000 40 990 wellington main 417 394 ________O_____ -1 -38.0000 169.000 40 990 13 215
1988055S10180 1988 13 SP MM BOLA 1988-03-10 03:00:00 NR -38.5598 168.618 main 393 378 ________P_____ -1 -38.5598 168.618 37 992 11 205
1988055S10180 1988 13 SP MM BOLA 1988-03-10 06:00:00 NR -39.0000 168.400 35 995 wellington main 378 366 ________O_____ -1 -39.0000 168.400 35 995 6 196
1988055S10180 1988 13 SP MM BOLA 1988-03-10 09:00:00 NR -39.1599 168.389 main 366 359 ________P_____ -1 -39.1599 168.389 32 996 2 157
1988055S10180 1988 13 SP MM BOLA 1988-03-10 12:00:00 NR -39.2000 168.500 30 997 wellington main 359 346 ________O_____ -1 -39.2000 168.500 30 997 2 132
1988055S10180 1988 13 SP MM BOLA 1988-03-10 15:00:00 NR -39.3075 168.600 main 346 332 ________P_____ -1 -39.3075 168.600 30 997 3 142
1988055S10180 1988 13 SP MM BOLA 1988-03-10 18:00:00 NR -39.4000 168.700 30 997 wellington main 332 332 ________O_____ -1 -39.4000 168.700 30 997 1 130
1988055S10180 1988 13 SP MM BOLA 1988-03-10 21:00:00 NR -39.3520 168.677 main 332 319 ________P_____ -1 -39.3520 168.677 30 997 1 143
1988055S10180 1988 13 SP MM BOLA 1988-03-11 00:00:00 NR -39.5000 168.800 30 997 wellington main 319 248 ________O_____ -1 -39.5000 168.800 30 997 10 149
1988055S10180 1988 13 SP MM BOLA 1988-03-11 03:00:00 NR -40.1985 169.343 main 248 153 ________P_____ -1 -40.1985 169.343 30 997 18 149
1988055S10180 1988 13 SP MM BOLA 1988-03-11 06:00:00 NR -41.0000 170.000 30 997 wellington main 153 97 ________O_____ -1 -41.0000 170.000 30 997 16 147
1988055S10180 1988 13 SP MM BOLA 1988-03-11 09:00:00 NR -41.5043 170.470 main 89 54 ________P_____ -1 -41.5043 170.470 30 997 10 143
1988055S10180 1988 13 SP MM BOLA 1988-03-11 12:00:00 NR -41.8000 170.800 30 997 wellington main 54 ________O_____ -1 -41.8000 170.800 30 997 8 140

デジタル台風データ・検索

IBTrACS Databaseについて

本データベースは、米国NOAAが公開する1842年以降の世界の熱帯低気圧のベストトラックデータアーカイブInternational Best Track Archive for Climate Stewardship (IBTrACS)を、ウェブで閲覧しやすい形式に変換したものです。

最終更新日:2021-10-25